Szkolenia lotnicze

Profesjonalne szkolenia lotnicze do licencji pilota szybowcowego i samolotowego oraz innych uprawnień specjalistycznych.

Szczegółowe informacje: +48 606 765 402.

Loty widokowe

Pełne pozytywnych emocji loty zapoznawcze na samolocie PZL-110 Koliber lub szybowcu KR-03A Puchatek.

Szczegółowe informacje: +48 606 765 402.

Obsługa lotniskowa

Kompleksowa obsługa lotniskowa, hangarowa i techniczna statków powietrznych oraz wsparcie ich załóg.

Szczegółowe informacje: +48 606 765 402.

Rekreacja i edukacja

Atrakcyjne zajęcia edukacyjne dla najmłodszych oraz tematyczne imprezy integracyjne dla nieco starszych.

Szczegółowe informacje: +48 606 765 402.

This Is A Headline Widget

You can customize it and put it where ever you want

EPPO 230600Z 28011KT 9999 SCT021 13/08 Q1016